sensor_id;sensor_type;location;lat;lon;timestamp;pressure;altitude;pressure_sealevel;temperature;humidity
72308;BME280;60257;42.638;23.376;2022-10-16T00:01:24;95183.81;;;8.88;74.43
72308;BME280;60257;42.638;23.376;2022-10-16T00:03:50;95201.03;;;8.80;74.80
72308;BME280;60257;42.638;23.376;2022-10-16T00:06:18;95199.91;;;8.73;75.17
72308;BME280;60257;42.638;23.376;2022-10-16T00:08:44;95195.22;;;8.56;75.45
72308;BME280;60257;42.638;23.376;2022-10-16T00:11:31;95200.88;;;8.51;75.91
72308;BME280;60257;42.638;23.376;2022-10-16T00:14:04;95197.47;;;8.54;75.74
72308;BME280;60257;42.638;23.376;2022-10-16T00:16:31;95202.00;;;8.59;75.65
72308;BME280;60257;42.638;23.376;2022-10-16T00:18:57;95204.25;;;8.65;75.48
72308;BME280;60257;42.638;23.376;2022-10-16T00:21:25;95201.66;;;8.60;75.32
72308;BME280;60257;42.638;23.376;2022-10-16T00:23:53;95203.41;;;8.47;76.00
72308;BME280;60257;42.638;23.376;2022-10-16T00:26:19;95205.97;;;8.44;75.97
72308;BME280;60257;42.638;23.376;2022-10-16T00:28:46;95201.00;;;8.46;75.57
72308;BME280;60257;42.638;23.376;2022-10-16T00:31:12;95213.22;;;8.48;75.47
72308;BME280;60257;42.638;23.376;2022-10-16T00:33:39;95209.69;;;8.48;75.61
72308;BME280;60257;42.638;23.376;2022-10-16T00:36:07;95215.97;;;8.48;75.46
72308;BME280;60257;42.638;23.376;2022-10-16T00:38:33;95222.72;;;8.42;75.45
72308;BME280;60257;42.638;23.376;2022-10-16T00:40:59;95219.66;;;8.35;75.74
72308;BME280;60257;42.638;23.376;2022-10-16T00:43:44;95223.81;;;8.33;75.80
72308;BME280;60257;42.638;23.376;2022-10-16T00:46:29;95221.69;;;8.30;75.74
72308;BME280;60257;42.638;23.376;2022-10-16T00:49:01;95218.03;;;8.34;76.19
72308;BME280;60257;42.638;23.376;2022-10-16T00:51:33;95203.09;;;8.32;76.06
72308;BME280;60257;42.638;23.376;2022-10-16T00:54:00;95208.53;;;8.32;76.23
72308;BME280;60257;42.638;23.376;2022-10-16T00:56:26;95214.94;;;8.27;76.04
72308;BME280;60257;42.638;23.376;2022-10-16T00:58:55;95216.06;;;8.26;76.05
72308;BME280;60257;42.638;23.376;2022-10-16T01:01:20;95219.91;;;8.25;75.98
72308;BME280;60257;42.638;23.376;2022-10-16T01:03:46;95222.81;;;8.20;76.51
72308;BME280;60257;42.638;23.376;2022-10-16T01:06:22;95226.00;;;8.22;76.17
72308;BME280;60257;42.638;23.376;2022-10-16T01:14:26;95223.25;;;8.05;76.06
72308;BME280;60257;42.638;23.376;2022-10-16T01:19:55;95230.97;;;8.03;76.35
72308;BME280;60257;42.638;23.376;2022-10-16T01:22:38;95234.00;;;8.01;76.25
72308;BME280;60257;42.638;23.376;2022-10-16T01:25:11;95222.44;;;7.96;76.33
72308;BME280;60257;42.638;23.376;2022-10-16T01:27:40;95227.88;;;7.96;76.39
72308;BME280;60257;42.638;23.376;2022-10-16T01:30:27;95216.16;;;7.95;76.24
72308;BME280;60257;42.638;23.376;2022-10-16T01:32:55;95216.66;;;7.97;76.06
72308;BME280;60257;42.638;23.376;2022-10-16T01:35:43;95209.69;;;7.91;76.06
72308;BME280;60257;42.638;23.376;2022-10-16T01:38:25;95206.34;;;7.94;76.09
72308;BME280;60257;42.638;23.376;2022-10-16T01:41:02;95207.66;;;7.97;75.64
72308;BME280;60257;42.638;23.376;2022-10-16T01:43:33;95205.38;;;7.99;75.07
72308;BME280;60257;42.638;23.376;2022-10-16T01:46:01;95212.31;;;7.96;75.27
72308;BME280;60257;42.638;23.376;2022-10-16T01:48:29;95209.56;;;7.96;75.07
72308;BME280;60257;42.638;23.376;2022-10-16T01:51:02;95210.69;;;7.95;74.96
72308;BME280;60257;42.638;23.376;2022-10-16T01:53:29;95220.03;;;8.03;74.78
72308;BME280;60257;42.638;23.376;2022-10-16T01:55:56;95221.50;;;8.09;74.25
72308;BME280;60257;42.638;23.376;2022-10-16T01:58:23;95217.44;;;8.06;73.98
72308;BME280;60257;42.638;23.376;2022-10-16T02:00:51;95221.97;;;8.02;74.11
72308;BME280;60257;42.638;23.376;2022-10-16T02:03:19;95216.81;;;8.01;74.03
72308;BME280;60257;42.638;23.376;2022-10-16T02:05:46;95228.53;;;8.01;73.74
72308;BME280;60257;42.638;23.376;2022-10-16T02:08:12;95218.53;;;7.88;73.91
72308;BME280;60257;42.638;23.376;2022-10-16T02:10:38;95219.78;;;7.82;74.35
72308;BME280;60257;42.638;23.376;2022-10-16T02:13:12;95228.00;;;7.91;74.31
72308;BME280;60257;42.638;23.376;2022-10-16T02:15:39;95237.16;;;7.86;74.35
72308;BME280;60257;42.638;23.376;2022-10-16T02:18:06;95239.28;;;7.89;74.13
72308;BME280;60257;42.638;23.376;2022-10-16T02:20:38;95238.94;;;7.91;74.13
72308;BME280;60257;42.638;23.376;2022-10-16T02:23:07;95230.28;;;7.89;74.30
72308;BME280;60257;42.638;23.376;2022-10-16T02:25:40;95234.59;;;7.90;74.62
72308;BME280;60257;42.638;23.376;2022-10-16T02:28:16;95246.34;;;7.99;74.37
72308;BME280;60257;42.638;23.376;2022-10-16T02:30:51;95240.88;;;7.99;73.99
72308;BME280;60257;42.638;23.376;2022-10-16T02:33:21;95177.66;;;7.57;74.06
72308;BME280;60257;42.638;23.376;2022-10-16T02:35:49;95239.13;;;7.94;74.16
72308;BME280;60257;42.638;23.376;2022-10-16T02:38:17;95246.03;;;8.00;74.07
72308;BME280;60257;42.638;23.376;2022-10-16T02:40:44;95241.00;;;7.85;74.19
72308;BME280;60257;42.638;23.376;2022-10-16T02:43:10;95244.28;;;7.96;74.19
72308;BME280;60257;42.638;23.376;2022-10-16T02:45:36;95255.19;;;7.96;73.88
72308;BME280;60257;42.638;23.376;2022-10-16T02:48:01;95247.94;;;7.91;73.87
72308;BME280;60257;42.638;23.376;2022-10-16T02:50:27;95245.88;;;7.97;73.48
72308;BME280;60257;42.638;23.376;2022-10-16T02:52:52;95235.38;;;7.82;73.58
72308;BME280;60257;42.638;23.376;2022-10-16T02:55:18;95254.00;;;7.80;73.86
72308;BME280;60257;42.638;23.376;2022-10-16T02:57:43;95251.91;;;7.77;74.17
72308;BME280;60257;42.638;23.376;2022-10-16T03:00:12;95267.75;;;7.66;74.63
72308;BME280;60257;42.638;23.376;2022-10-16T03:02:38;95260.81;;;7.60;74.81
72308;BME280;60257;42.638;23.376;2022-10-16T03:05:03;95266.25;;;7.60;74.69
72308;BME280;60257;42.638;23.376;2022-10-16T03:07:29;95261.13;;;7.58;75.04
72308;BME280;60257;42.638;23.376;2022-10-16T03:09:54;95263.88;;;7.58;75.14
72308;BME280;60257;42.638;23.376;2022-10-16T03:12:21;95259.13;;;7.42;75.71
72308;BME280;60257;42.638;23.376;2022-10-16T03:14:46;95269.72;;;7.43;75.66
72308;BME280;60257;42.638;23.376;2022-10-16T03:17:12;95262.28;;;7.35;75.95
72308;BME280;60257;42.638;23.376;2022-10-16T03:19:38;95272.50;;;7.29;76.20
72308;BME280;60257;42.638;23.376;2022-10-16T03:22:04;95274.31;;;7.34;76.00
72308;BME280;60257;42.638;23.376;2022-10-16T03:24:30;95277.50;;;7.27;76.26
72308;BME280;60257;42.638;23.376;2022-10-16T03:26:55;95276.53;;;7.32;76.33
72308;BME280;60257;42.638;23.376;2022-10-16T03:29:21;95276.53;;;7.32;76.41
72308;BME280;60257;42.638;23.376;2022-10-16T03:31:46;95279.06;;;7.28;76.46
72308;BME280;60257;42.638;23.376;2022-10-16T03:34:13;95281.63;;;7.25;76.74
72308;BME280;60257;42.638;23.376;2022-10-16T03:36:39;95279.53;;;7.22;77.03
72308;BME280;60257;42.638;23.376;2022-10-16T03:39:04;95286.91;;;7.21;77.09
72308;BME280;60257;42.638;23.376;2022-10-16T03:41:30;95286.28;;;7.24;76.75
72308;BME280;60257;42.638;23.376;2022-10-16T03:43:55;95280.38;;;7.31;76.67
72308;BME280;60257;42.638;23.376;2022-10-16T03:46:21;95280.31;;;7.22;76.59
72308;BME280;60257;42.638;23.376;2022-10-16T03:48:46;95283.31;;;7.12;76.67
72308;BME280;60257;42.638;23.376;2022-10-16T03:51:12;95272.81;;;7.06;76.95
72308;BME280;60257;42.638;23.376;2022-10-16T03:53:37;95280.41;;;7.09;76.88
72308;BME280;60257;42.638;23.376;2022-10-16T03:56:02;95281.50;;;7.08;76.95
72308;BME280;60257;42.638;23.376;2022-10-16T03:58:28;95273.94;;;7.05;76.76
72308;BME280;60257;42.638;23.376;2022-10-16T04:00:53;95272.81;;;7.06;77.16
72308;BME280;60257;42.638;23.376;2022-10-16T04:03:19;95277.66;;;7.09;76.65
72308;BME280;60257;42.638;23.376;2022-10-16T04:05:45;95251.06;;;6.92;76.73
72308;BME280;60257;42.638;23.376;2022-10-16T04:08:10;95272.66;;;7.02;76.99
72308;BME280;60257;42.638;23.376;2022-10-16T04:10:35;95280.47;;;6.95;77.36
72308;BME280;60257;42.638;23.376;2022-10-16T04:13:01;95262.91;;;6.87;77.64
72308;BME280;60257;42.638;23.376;2022-10-16T04:15:27;95277.53;;;6.91;77.67
72308;BME280;60257;42.638;23.376;2022-10-16T04:17:52;95276.28;;;6.97;77.80
72308;BME280;60257;42.638;23.376;2022-10-16T04:20:18;95279.81;;;6.98;77.63
72308;BME280;60257;42.638;23.376;2022-10-16T04:22:44;95274.50;;;6.93;78.20
72308;BME280;60257;42.638;23.376;2022-10-16T04:25:10;95276.41;;;6.92;78.34
72308;BME280;60257;42.638;23.376;2022-10-16T04:27:36;95281.06;;;6.92;78.13
72308;BME280;60257;42.638;23.376;2022-10-16T04:30:02;95261.09;;;6.83;77.64
72308;BME280;60257;42.638;23.376;2022-10-16T04:32:28;95274.50;;;6.93;77.88
72308;BME280;60257;42.638;23.376;2022-10-16T04:34:53;95274.19;;;6.94;77.91
72308;BME280;60257;42.638;23.376;2022-10-16T04:37:22;95280.94;;;6.97;77.42
72308;BME280;60257;42.638;23.376;2022-10-16T04:39:48;95287.47;;;6.74;77.80
72308;BME280;60257;42.638;23.376;2022-10-16T04:42:13;95291.81;;;6.75;77.80
72308;BME280;60257;42.638;23.376;2022-10-16T04:44:42;95299.41;;;6.78;77.40
72308;BME280;60257;42.638;23.376;2022-10-16T04:47:07;95302.72;;;6.75;77.61
72308;BME280;60257;42.638;23.376;2022-10-16T04:49:33;95302.84;;;6.70;77.52
72308;BME280;60257;42.638;23.376;2022-10-16T04:51:59;95301.75;;;6.71;77.43
72308;BME280;60257;42.638;23.376;2022-10-16T04:54:24;95307.06;;;6.76;77.15
72308;BME280;60257;42.638;23.376;2022-10-16T04:56:50;95308.38;;;6.78;76.92
72308;BME280;60257;42.638;23.376;2022-10-16T04:59:18;95309.78;;;6.76;76.93
72308;BME280;60257;42.638;23.376;2022-10-16T05:01:44;95312.50;;;6.76;77.15
72308;BME280;60257;42.638;23.376;2022-10-16T05:04:10;95321.88;;;6.83;76.79
72308;BME280;60257;42.638;23.376;2022-10-16T05:06:36;95313.91;;;6.87;76.71
72308;BME280;60257;42.638;23.376;2022-10-16T05:09:02;95318.44;;;6.91;76.41
72308;BME280;60257;42.638;23.376;2022-10-16T05:11:28;95317.63;;;6.91;76.58
72308;BME280;60257;42.638;23.376;2022-10-16T05:13:53;95317.03;;;6.94;76.71
72308;BME280;60257;42.638;23.376;2022-10-16T05:16:19;95319.81;;;7.03;76.02
72308;BME280;60257;42.638;23.376;2022-10-16T05:18:44;95329.78;;;7.07;75.57
72308;BME280;60257;42.638;23.376;2022-10-16T05:21:10;95327.25;;;7.11;76.37
72308;BME280;60257;42.638;23.376;2022-10-16T05:23:35;95331.47;;;7.17;75.83
72308;BME280;60257;42.638;23.376;2022-10-16T05:26:01;95338.13;;;7.24;76.41
72308;BME280;60257;42.638;23.376;2022-10-16T05:28:30;95343.75;;;7.28;75.60
72308;BME280;60257;42.638;23.376;2022-10-16T05:30:56;95329.69;;;7.34;75.41
72308;BME280;60257;42.638;23.376;2022-10-16T05:33:24;95325.81;;;7.35;75.07
72308;BME280;60257;42.638;23.376;2022-10-16T05:35:50;95322.09;;;7.54;74.58
72308;BME280;60257;42.638;23.376;2022-10-16T05:38:18;95332.72;;;7.55;74.42
72308;BME280;60257;42.638;23.376;2022-10-16T05:40:50;95334.56;;;7.46;74.78
72308;BME280;60257;42.638;23.376;2022-10-16T05:43:16;95341.50;;;7.52;74.76
72308;BME280;60257;42.638;23.376;2022-10-16T05:45:42;95328.19;;;7.51;75.11
72308;BME280;60257;42.638;23.376;2022-10-16T05:48:08;95327.63;;;7.62;74.72
72308;BME280;60257;42.638;23.376;2022-10-16T05:50:33;95337.47;;;7.72;74.23
72308;BME280;60257;42.638;23.376;2022-10-16T05:52:58;95350.44;;;7.89;75.01
72308;BME280;60257;42.638;23.376;2022-10-16T05:55:24;95344.50;;;7.95;74.11
72308;BME280;60257;42.638;23.376;2022-10-16T05:57:49;95348.09;;;8.04;74.62
72308;BME280;60257;42.638;23.376;2022-10-16T06:00:15;95353.06;;;8.02;74.55
72308;BME280;60257;42.638;23.376;2022-10-16T06:02:40;95359.84;;;8.05;73.60
72308;BME280;60257;42.638;23.376;2022-10-16T06:05:06;95358.34;;;7.99;75.01
72308;BME280;60257;42.638;23.376;2022-10-16T06:07:34;95360.66;;;8.14;74.00
72308;BME280;60257;42.638;23.376;2022-10-16T06:10:01;95362.28;;;8.15;73.73
72308;BME280;60257;42.638;23.376;2022-10-16T06:12:27;95371.63;;;8.23;73.16
72308;BME280;60257;42.638;23.376;2022-10-16T06:14:53;95370.88;;;8.31;72.91
72308;BME280;60257;42.638;23.376;2022-10-16T06:17:18;95363.78;;;8.30;72.82
72308;BME280;60257;42.638;23.376;2022-10-16T06:19:44;95378.81;;;8.41;73.00
72308;BME280;60257;42.638;23.376;2022-10-16T06:22:09;95378.03;;;8.49;73.01
72308;BME280;60257;42.638;23.376;2022-10-16T06:24:35;95382.84;;;8.52;72.45
72308;BME280;60257;42.638;23.376;2022-10-16T06:27:03;95393.03;;;8.60;71.62
72308;BME280;60257;42.638;23.376;2022-10-16T06:29:28;95386.56;;;8.47;72.22
72308;BME280;60257;42.638;23.376;2022-10-16T06:31:54;95381.44;;;8.55;72.11
72308;BME280;60257;42.638;23.376;2022-10-16T06:34:19;95385.16;;;8.59;71.78
72308;BME280;60257;42.638;23.376;2022-10-16T06:36:44;95391.06;;;8.52;71.71
72308;BME280;60257;42.638;23.376;2022-10-16T06:39:10;95397.72;;;8.68;71.66
72308;BME280;60257;42.638;23.376;2022-10-16T06:41:36;95390.03;;;8.79;71.02
72308;BME280;60257;42.638;23.376;2022-10-16T06:44:05;95390.53;;;8.81;71.46
72308;BME280;60257;42.638;23.376;2022-10-16T06:46:32;95393.75;;;8.92;71.28
72308;BME280;60257;42.638;23.376;2022-10-16T06:48:57;95396.38;;;8.97;71.23
72308;BME280;60257;42.638;23.376;2022-10-16T06:51:24;95404.41;;;9.02;70.70
72308;BME280;60257;42.638;23.376;2022-10-16T06:53:54;95402.63;;;8.97;70.97
72308;BME280;60257;42.638;23.376;2022-10-16T06:56:27;95413.13;;;9.12;70.90
72308;BME280;60257;42.638;23.376;2022-10-16T06:58:53;95404.91;;;9.12;70.94
72308;BME280;60257;42.638;23.376;2022-10-16T07:01:21;95407.81;;;9.24;71.05
72308;BME280;60257;42.638;23.376;2022-10-16T07:03:47;95422.47;;;9.37;71.08
72308;BME280;60257;42.638;23.376;2022-10-16T07:06:15;95419.13;;;9.49;70.60
72308;BME280;60257;42.638;23.376;2022-10-16T07:08:42;95419.13;;;9.57;70.31
72308;BME280;60257;42.638;23.376;2022-10-16T07:11:10;95419.44;;;9.56;70.67
72308;BME280;60257;42.638;23.376;2022-10-16T07:13:37;95416.88;;;9.59;70.58
72308;BME280;60257;42.638;23.376;2022-10-16T07:18:33;95414.59;;;9.70;69.86
72308;BME280;60257;42.638;23.376;2022-10-16T07:23:31;95425.72;;;9.74;69.77
72308;BME280;60257;42.638;23.376;2022-10-16T07:25:56;95427.16;;;9.80;69.46
72308;BME280;60257;42.638;23.376;2022-10-16T07:28:21;95426.34;;;9.88;69.20
72308;BME280;60257;42.638;23.376;2022-10-16T07:30:47;95415.22;;;9.93;69.16
72308;BME280;60257;42.638;23.376;2022-10-16T07:33:13;95405.88;;;9.94;68.94
72308;BME280;60257;42.638;23.376;2022-10-16T07:35:50;95429.72;;;10.11;68.54
72308;BME280;60257;42.638;23.376;2022-10-16T07:38:15;95433.41;;;10.15;68.34
72308;BME280;60257;42.638;23.376;2022-10-16T07:40:41;95413.47;;;9.97;68.08
72308;BME280;60257;42.638;23.376;2022-10-16T07:43:06;95418.75;;;10.11;67.59
72308;BME280;60257;42.638;23.376;2022-10-16T07:45:32;95429.41;;;10.21;68.05
72308;BME280;60257;42.638;23.376;2022-10-16T07:47:57;95423.75;;;10.17;67.61
72308;BME280;60257;42.638;23.376;2022-10-16T07:50:23;95434.69;;;10.34;67.64
72308;BME280;60257;42.638;23.376;2022-10-16T07:52:48;95436.59;;;10.43;67.11
72308;BME280;60257;42.638;23.376;2022-10-16T07:55:13;95413.41;;;10.31;66.32
72308;BME280;60257;42.638;23.376;2022-10-16T07:57:39;95436.56;;;10.51;67.00
72308;BME280;60257;42.638;23.376;2022-10-16T08:00:05;95430.25;;;10.59;67.07
72308;BME280;60257;42.638;23.376;2022-10-16T08:02:31;95441.50;;;10.75;66.86
72308;BME280;60257;42.638;23.376;2022-10-16T08:04:56;95437.56;;;10.85;66.24
72308;BME280;60257;42.638;23.376;2022-10-16T08:07:22;95436.59;;;10.89;65.14
72308;BME280;60257;42.638;23.376;2022-10-16T08:09:50;95432.47;;;11.04;65.28
72308;BME280;60257;42.638;23.376;2022-10-16T08:12:17;95436.34;;;11.03;64.07
72308;BME280;60257;42.638;23.376;2022-10-16T08:14:42;95425.03;;;11.04;64.92
72308;BME280;60257;42.638;23.376;2022-10-16T08:17:08;95427.06;;;11.16;64.16
72308;BME280;60257;42.638;23.376;2022-10-16T08:19:33;95429.91;;;11.28;63.90
72308;BME280;60257;42.638;23.376;2022-10-16T08:22:00;95421.94;;;11.35;63.46
72308;BME280;60257;42.638;23.376;2022-10-16T08:24:26;95426.59;;;11.43;63.43
72308;BME280;60257;42.638;23.376;2022-10-16T08:26:53;95424.81;;;11.39;62.53
72308;BME280;60257;42.638;23.376;2022-10-16T08:29:19;95424.81;;;11.39;62.52
72308;BME280;60257;42.638;23.376;2022-10-16T08:31:45;95427.44;;;11.35;62.51
72308;BME280;60257;42.638;23.376;2022-10-16T08:34:10;95420.50;;;11.38;62.99
72308;BME280;60257;42.638;23.376;2022-10-16T08:36:36;95427.06;;;11.45;63.13
72308;BME280;60257;42.638;23.376;2022-10-16T08:39:01;95422.09;;;11.60;62.79
72308;BME280;60257;42.638;23.376;2022-10-16T08:47:12;95421.03;;;11.93;60.47
72308;BME280;60257;42.638;23.376;2022-10-16T08:49:41;95418.75;;;11.95;60.02
72308;BME280;60257;42.638;23.376;2022-10-16T08:52:12;95434.16;;;12.09;58.83
72308;BME280;60257;42.638;23.376;2022-10-16T08:54:44;95430.31;;;12.22;58.70
72308;BME280;60257;42.638;23.376;2022-10-16T08:57:18;95430.34;;;12.34;57.54
72308;BME280;60257;42.638;23.376;2022-10-16T08:59:44;95439.31;;;12.43;57.39
72308;BME280;60257;42.638;23.376;2022-10-16T09:02:38;95434.63;;;12.56;56.83
72308;BME280;60257;42.638;23.376;2022-10-16T09:08:32;95424.72;;;12.76;55.63
72308;BME280;60257;42.638;23.376;2022-10-16T09:11:14;95428.97;;;12.85;54.87
72308;BME280;60257;42.638;23.376;2022-10-16T09:14:08;95428.59;;;12.87;55.34
72308;BME280;60257;42.638;23.376;2022-10-16T09:16:41;95421.28;;;12.91;53.81
72308;BME280;60257;42.638;23.376;2022-10-16T09:19:25;95421.75;;;12.93;53.00
72308;BME280;60257;42.638;23.376;2022-10-16T09:21:53;95426.66;;;12.87;51.92
72308;BME280;60257;42.638;23.376;2022-10-16T09:24:22;95416.66;;;12.70;52.60
72308;BME280;60257;42.638;23.376;2022-10-16T09:26:49;95424.81;;;12.79;53.62
72308;BME280;60257;42.638;23.376;2022-10-16T09:29:20;95431.72;;;12.85;52.55
72308;BME280;60257;42.638;23.376;2022-10-16T09:31:47;95425.66;;;12.92;51.70
72308;BME280;60257;42.638;23.376;2022-10-16T09:34:32;95426.09;;;12.94;51.23
72308;BME280;60257;42.638;23.376;2022-10-16T09:37:03;95417.84;;;12.94;50.80
72308;BME280;60257;42.638;23.376;2022-10-16T09:39:29;95424.59;;;12.96;51.57
72308;BME280;60257;42.638;23.376;2022-10-16T09:41:55;95422.31;;;13.10;50.29
72308;BME280;60257;42.638;23.376;2022-10-16T09:44:28;95419.22;;;13.12;50.48
72308;BME280;60257;42.638;23.376;2022-10-16T09:47:15;95422.78;;;13.25;49.91
72308;BME280;60257;42.638;23.376;2022-10-16T09:49:57;95413.59;;;13.33;49.64
72308;BME280;60257;42.638;23.376;2022-10-16T09:52:25;95408.47;;;13.31;49.58
72308;BME280;60257;42.638;23.376;2022-10-16T09:54:59;95401.34;;;13.30;49.69
72308;BME280;60257;42.638;23.376;2022-10-16T09:57:26;95412.22;;;13.51;49.75
72308;BME280;60257;42.638;23.376;2022-10-16T09:59:54;95404.41;;;13.53;49.22
72308;BME280;60257;42.638;23.376;2022-10-16T10:02:36;95410.69;;;13.66;49.31
72308;BME280;60257;42.638;23.376;2022-10-16T10:05:05;95408.03;;;13.69;49.47
72308;BME280;60257;42.638;23.376;2022-10-16T10:07:39;95402.28;;;13.74;49.32
72308;BME280;60257;42.638;23.376;2022-10-16T10:10:23;95396.75;;;13.74;49.37
72308;BME280;60257;42.638;23.376;2022-10-16T10:12:49;95398.56;;;13.82;49.10
72308;BME280;60257;42.638;23.376;2022-10-16T10:15:15;95388.44;;;13.86;49.09
72308;BME280;60257;42.638;23.376;2022-10-16T10:17:51;95393.22;;;14.02;49.30
72308;BME280;60257;42.638;23.376;2022-10-16T10:20:31;95395.06;;;13.98;48.82
72308;BME280;60257;42.638;23.376;2022-10-16T10:23:21;95394.28;;;13.97;48.28
72308;BME280;60257;42.638;23.376;2022-10-16T10:28:47;95386.25;;;14.20;47.77
72308;BME280;60257;42.638;23.376;2022-10-16T10:31:32;95383.47;;;14.20;48.62
72308;BME280;60257;42.638;23.376;2022-10-16T10:37:34;95377.53;;;14.46;47.54
72308;BME280;60257;42.638;23.376;2022-10-16T10:40:21;95374.94;;;14.53;47.49
72308;BME280;60257;42.638;23.376;2022-10-16T10:43:04;95382.72;;;14.63;47.37
72308;BME280;60257;42.638;23.376;2022-10-16T10:45:48;95374.50;;;14.67;47.76
72308;BME280;60257;42.638;23.376;2022-10-16T10:53:42;95362.47;;;14.75;45.02
72308;BME280;60257;42.638;23.376;2022-10-16T10:56:20;95363.28;;;14.75;45.81
72308;BME280;60257;42.638;23.376;2022-10-16T11:01:40;95352.13;;;15.03;43.79
72308;BME280;60257;42.638;23.376;2022-10-16T11:09:24;95347.31;;;15.16;39.89
72308;BME280;60257;42.638;23.376;2022-10-16T11:12:07;95343.63;;;15.12;40.12
72308;BME280;60257;42.638;23.376;2022-10-16T11:14:43;95339.72;;;15.13;39.91
72308;BME280;60257;42.638;23.376;2022-10-16T11:17:21;95341.69;;;15.12;39.75
72308;BME280;60257;42.638;23.376;2022-10-16T11:20:21;95335.91;;;15.17;38.94
72308;BME280;60257;42.638;23.376;2022-10-16T11:23:25;95329.44;;;15.29;37.81
72308;BME280;60257;42.638;23.376;2022-10-16T11:25:54;95343.97;;;15.26;37.93
72308;BME280;60257;42.638;23.376;2022-10-16T11:28:31;95326.81;;;15.17;37.84
72308;BME280;60257;42.638;23.376;2022-10-16T11:31:46;95335.97;;;15.21;38.01
72308;BME280;60257;42.638;23.376;2022-10-16T11:34:22;95326.75;;;15.32;37.82
72308;BME280;60257;42.638;23.376;2022-10-16T11:37:14;95335.91;;;15.36;38.83
72308;BME280;60257;42.638;23.376;2022-10-16T11:39:43;95314.53;;;15.33;38.20
72308;BME280;60257;42.638;23.376;2022-10-16T11:42:48;95333.59;;;15.54;38.79
72308;BME280;60257;42.638;23.376;2022-10-16T11:45:33;95338.97;;;15.66;38.98
72308;BME280;60257;42.638;23.376;2022-10-16T11:48:15;95338.75;;;15.75;38.40
72308;BME280;60257;42.638;23.376;2022-10-16T11:50:43;95332.13;;;15.79;38.03
72308;BME280;60257;42.638;23.376;2022-10-16T11:56:07;95337.94;;;15.74;37.90
72308;BME280;60257;42.638;23.376;2022-10-16T12:01:31;95332.94;;;15.99;39.28
72308;BME280;60257;42.638;23.376;2022-10-16T12:04:45;95335.63;;;15.96;39.28
72308;BME280;60257;42.638;23.376;2022-10-16T12:09:30;95329.72;;;15.97;39.31
72308;BME280;60257;42.638;23.376;2022-10-16T12:11:56;95330.09;;;15.96;39.74
72308;BME280;60257;42.638;23.376;2022-10-16T12:22:56;95329.63;;;16.13;39.78
72308;BME280;60257;42.638;23.376;2022-10-16T12:25:22;95331.69;;;16.16;39.76
72308;BME280;60257;42.638;23.376;2022-10-16T12:30:24;95324.09;;;16.13;38.14
72308;BME280;60257;42.638;23.376;2022-10-16T12:33:05;95327.81;;;16.21;38.11
72308;BME280;60257;42.638;23.376;2022-10-16T12:35:43;95318.44;;;16.06;37.65
72308;BME280;60257;42.638;23.376;2022-10-16T12:41:27;95337.84;;;16.29;38.92
72308;BME280;60257;42.638;23.376;2022-10-16T12:43:53;95327.81;;;16.21;38.31
72308;BME280;60257;42.638;23.376;2022-10-16T12:48:45;95334.63;;;16.27;37.54
72308;BME280;60257;42.638;23.376;2022-10-16T12:53:46;95321.16;;;16.02;38.63
72308;BME280;60257;42.638;23.376;2022-10-16T13:06:30;95348.50;;;16.07;38.58
72308;BME280;60257;42.638;23.376;2022-10-16T13:14:46;95343.41;;;16.09;38.90
72308;BME280;60257;42.638;23.376;2022-10-16T13:17:48;95342.22;;;16.10;39.30
72308;BME280;60257;42.638;23.376;2022-10-16T13:20:41;95349.22;;;16.04;39.19
72308;BME280;60257;42.638;23.376;2022-10-16T13:29:05;95341.00;;;16.08;39.88
72308;BME280;60257;42.638;23.376;2022-10-16T13:31:32;95347.75;;;16.10;39.96
72308;BME280;60257;42.638;23.376;2022-10-16T13:33:59;95345.44;;;16.12;39.17
72308;BME280;60257;42.638;23.376;2022-10-16T13:44:23;95348.50;;;15.88;39.24
72308;BME280;60257;42.638;23.376;2022-10-16T13:47:02;95343.72;;;15.85;39.48
72308;BME280;60257;42.638;23.376;2022-10-16T13:49:28;95354.84;;;15.89;39.90
72308;BME280;60257;42.638;23.376;2022-10-16T13:51:58;95347.47;;;15.96;39.62
72308;BME280;60257;42.638;23.376;2022-10-16T13:54:26;95344.66;;;15.93;39.47
72308;BME280;60257;42.638;23.376;2022-10-16T13:56:52;95361.63;;;15.91;39.89
72308;BME280;60257;42.638;23.376;2022-10-16T13:59:34;95360.66;;;15.84;39.85
72308;BME280;60257;42.638;23.376;2022-10-16T14:02:01;95360.22;;;15.82;40.15
72308;BME280;60257;42.638;23.376;2022-10-16T14:04:32;95355.94;;;15.84;40.32
72308;BME280;60257;42.638;23.376;2022-10-16T14:06:58;95352.81;;;15.86;40.32
72308;BME280;60257;42.638;23.376;2022-10-16T14:09:26;95359.56;;;15.88;40.22
72308;BME280;60257;42.638;23.376;2022-10-16T14:11:56;95365.41;;;15.83;40.54
72308;BME280;60257;42.638;23.376;2022-10-16T14:14:23;95367.38;;;15.83;40.01
72308;BME280;60257;42.638;23.376;2022-10-16T14:16:50;95369.31;;;15.82;39.93
72308;BME280;60257;42.638;23.376;2022-10-16T14:19:22;95368.16;;;15.83;39.49
72308;BME280;60257;42.638;23.376;2022-10-16T14:21:50;95372.97;;;15.86;39.75
72308;BME280;60257;42.638;23.376;2022-10-16T14:24:34;95373.53;;;15.76;38.90
72308;BME280;60257;42.638;23.376;2022-10-16T14:27:01;95379.06;;;15.76;39.08
72308;BME280;60257;42.638;23.376;2022-10-16T14:29:28;95381.84;;;15.76;39.68
72308;BME280;60257;42.638;23.376;2022-10-16T14:34:33;95378.84;;;15.65;39.03
72308;BME280;60257;42.638;23.376;2022-10-16T14:37:19;95377.16;;;15.61;39.16
72308;BME280;60257;42.638;23.376;2022-10-16T14:39:49;95384.94;;;15.55;39.41
72308;BME280;60257;42.638;23.376;2022-10-16T14:42:18;95378.50;;;15.51;39.15
72308;BME280;60257;42.638;23.376;2022-10-16T14:44:45;95393.31;;;15.43;39.22
72308;BME280;60257;42.638;23.376;2022-10-16T14:47:17;95387.63;;;15.36;39.04
72308;BME280;60257;42.638;23.376;2022-10-16T14:49:47;95389.53;;;15.32;39.48
72308;BME280;60257;42.638;23.376;2022-10-16T14:52:14;95391.31;;;15.24;40.01